sensor_id;sensor_type;location;lat;lon;timestamp;P1;durP1;ratioP1;P2;durP2;ratioP2
68353;SDS011;55274;43.060;25.618;2022-10-16T00:02:05;11.85;;;5.22;;
68353;SDS011;55274;43.060;25.618;2022-10-16T00:04:31;10.23;;;5.25;;
68353;SDS011;55274;43.060;25.618;2022-10-16T00:06:57;11.32;;;5.63;;
68353;SDS011;55274;43.060;25.618;2022-10-16T00:09:23;7.65;;;4.95;;
68353;SDS011;55274;43.060;25.618;2022-10-16T00:11:48;12.25;;;5.07;;
68353;SDS011;55274;43.060;25.618;2022-10-16T00:14:15;11.02;;;5.55;;
68353;SDS011;55274;43.060;25.618;2022-10-16T00:16:41;11.63;;;5.38;;
68353;SDS011;55274;43.060;25.618;2022-10-16T00:19:07;11.48;;;5.30;;
68353;SDS011;55274;43.060;25.618;2022-10-16T00:21:34;9.27;;;5.03;;
68353;SDS011;55274;43.060;25.618;2022-10-16T00:24:04;9.85;;;5.30;;
68353;SDS011;55274;43.060;25.618;2022-10-16T00:26:32;12.07;;;6.13;;
68353;SDS011;55274;43.060;25.618;2022-10-16T00:28:59;9.75;;;5.38;;
68353;SDS011;55274;43.060;25.618;2022-10-16T00:31:25;8.75;;;4.93;;
68353;SDS011;55274;43.060;25.618;2022-10-16T00:33:51;9.02;;;5.00;;
68353;SDS011;55274;43.060;25.618;2022-10-16T00:36:19;11.20;;;5.30;;
68353;SDS011;55274;43.060;25.618;2022-10-16T00:38:47;7.60;;;4.57;;
68353;SDS011;55274;43.060;25.618;2022-10-16T00:41:18;10.35;;;5.00;;
68353;SDS011;55274;43.060;25.618;2022-10-16T00:43:45;9.50;;;5.82;;
68353;SDS011;55274;43.060;25.618;2022-10-16T00:46:26;10.93;;;6.20;;
68353;SDS011;55274;43.060;25.618;2022-10-16T00:51:47;8.90;;;4.95;;
68353;SDS011;55274;43.060;25.618;2022-10-16T00:54:19;11.63;;;5.30;;
68353;SDS011;55274;43.060;25.618;2022-10-16T00:56:48;9.35;;;5.43;;
68353;SDS011;55274;43.060;25.618;2022-10-16T00:59:18;8.90;;;5.40;;
68353;SDS011;55274;43.060;25.618;2022-10-16T01:01:55;9.80;;;5.40;;
68353;SDS011;55274;43.060;25.618;2022-10-16T01:04:22;11.55;;;5.55;;
68353;SDS011;55274;43.060;25.618;2022-10-16T01:09:35;9.45;;;5.32;;
68353;SDS011;55274;43.060;25.618;2022-10-16T01:12:38;8.63;;;5.43;;
68353;SDS011;55274;43.060;25.618;2022-10-16T01:28:23;11.00;;;5.28;;
68353;SDS011;55274;43.060;25.618;2022-10-16T01:30:55;9.52;;;4.93;;
68353;SDS011;55274;43.060;25.618;2022-10-16T01:33:26;10.43;;;5.25;;
68353;SDS011;55274;43.060;25.618;2022-10-16T01:36:02;22.23;;;5.43;;
68353;SDS011;55274;43.060;25.618;2022-10-16T01:38:34;22.98;;;7.43;;
68353;SDS011;55274;43.060;25.618;2022-10-16T01:41:16;10.70;;;5.20;;
68353;SDS011;55274;43.060;25.618;2022-10-16T01:43:53;9.98;;;5.63;;
68353;SDS011;55274;43.060;25.618;2022-10-16T01:46:28;10.27;;;5.07;;
68353;SDS011;55274;43.060;25.618;2022-10-16T01:48:57;9.45;;;4.55;;
68353;SDS011;55274;43.060;25.618;2022-10-16T01:51:25;12.27;;;5.05;;
68353;SDS011;55274;43.060;25.618;2022-10-16T01:53:54;7.53;;;4.95;;
68353;SDS011;55274;43.060;25.618;2022-10-16T01:56:23;10.63;;;5.32;;
68353;SDS011;55274;43.060;25.618;2022-10-16T01:58:58;9.88;;;4.90;;
68353;SDS011;55274;43.060;25.618;2022-10-16T02:03:55;8.60;;;5.20;;
68353;SDS011;55274;43.060;25.618;2022-10-16T02:06:24;8.65;;;4.80;;
68353;SDS011;55274;43.060;25.618;2022-10-16T02:08:50;9.55;;;5.18;;
68353;SDS011;55274;43.060;25.618;2022-10-16T02:11:16;10.35;;;5.40;;
68353;SDS011;55274;43.060;25.618;2022-10-16T02:13:44;8.80;;;4.50;;
68353;SDS011;55274;43.060;25.618;2022-10-16T02:16:13;10.10;;;5.13;;
68353;SDS011;55274;43.060;25.618;2022-10-16T02:18:39;9.10;;;5.43;;
68353;SDS011;55274;43.060;25.618;2022-10-16T02:21:18;9.18;;;5.07;;
68353;SDS011;55274;43.060;25.618;2022-10-16T02:29:07;9.93;;;4.55;;
68353;SDS011;55274;43.060;25.618;2022-10-16T02:31:38;9.93;;;5.00;;
68353;SDS011;55274;43.060;25.618;2022-10-16T02:34:09;9.10;;;5.05;;
68353;SDS011;55274;43.060;25.618;2022-10-16T02:36:37;13.40;;;5.10;;
68353;SDS011;55274;43.060;25.618;2022-10-16T02:39:04;16.23;;;5.72;;
68353;SDS011;55274;43.060;25.618;2022-10-16T02:41:31;12.60;;;5.22;;
68353;SDS011;55274;43.060;25.618;2022-10-16T02:43:58;14.25;;;5.15;;
68353;SDS011;55274;43.060;25.618;2022-10-16T02:46:23;10.45;;;4.53;;
68353;SDS011;55274;43.060;25.618;2022-10-16T02:48:49;8.13;;;5.28;;
68353;SDS011;55274;43.060;25.618;2022-10-16T02:51:15;12.27;;;5.20;;
68353;SDS011;55274;43.060;25.618;2022-10-16T02:53:41;9.57;;;5.57;;
68353;SDS011;55274;43.060;25.618;2022-10-16T02:56:06;12.05;;;5.38;;
68353;SDS011;55274;43.060;25.618;2022-10-16T02:58:32;10.27;;;5.13;;
68353;SDS011;55274;43.060;25.618;2022-10-16T03:00:58;7.85;;;4.78;;
68353;SDS011;55274;43.060;25.618;2022-10-16T03:03:24;12.65;;;5.72;;
68353;SDS011;55274;43.060;25.618;2022-10-16T03:05:49;9.18;;;4.65;;
68353;SDS011;55274;43.060;25.618;2022-10-16T03:08:15;11.75;;;5.30;;
68353;SDS011;55274;43.060;25.618;2022-10-16T03:10:41;8.43;;;5.03;;
68353;SDS011;55274;43.060;25.618;2022-10-16T03:13:07;10.13;;;5.57;;
68353;SDS011;55274;43.060;25.618;2022-10-16T03:15:32;9.15;;;4.68;;
68353;SDS011;55274;43.060;25.618;2022-10-16T03:17:58;13.90;;;5.25;;
68353;SDS011;55274;43.060;25.618;2022-10-16T03:20:24;12.15;;;5.30;;
68353;SDS011;55274;43.060;25.618;2022-10-16T03:22:51;10.32;;;5.38;;
68353;SDS011;55274;43.060;25.618;2022-10-16T03:25:17;9.13;;;4.60;;
68353;SDS011;55274;43.060;25.618;2022-10-16T03:27:42;8.30;;;4.50;;
68353;SDS011;55274;43.060;25.618;2022-10-16T03:30:08;8.07;;;5.00;;
68353;SDS011;55274;43.060;25.618;2022-10-16T03:32:34;13.35;;;5.35;;
68353;SDS011;55274;43.060;25.618;2022-10-16T03:35:00;9.88;;;5.45;;
68353;SDS011;55274;43.060;25.618;2022-10-16T03:37:26;12.85;;;5.72;;
68353;SDS011;55274;43.060;25.618;2022-10-16T03:39:52;13.95;;;6.45;;
68353;SDS011;55274;43.060;25.618;2022-10-16T03:42:18;14.32;;;5.90;;
68353;SDS011;55274;43.060;25.618;2022-10-16T03:44:43;10.00;;;5.15;;
68353;SDS011;55274;43.060;25.618;2022-10-16T03:47:09;11.52;;;4.70;;
68353;SDS011;55274;43.060;25.618;2022-10-16T03:49:35;7.15;;;4.75;;
68353;SDS011;55274;43.060;25.618;2022-10-16T03:52:01;11.05;;;5.47;;
68353;SDS011;55274;43.060;25.618;2022-10-16T03:54:26;12.90;;;5.78;;
68353;SDS011;55274;43.060;25.618;2022-10-16T03:56:52;15.15;;;6.07;;
68353;SDS011;55274;43.060;25.618;2022-10-16T03:59:18;15.80;;;6.55;;
68353;SDS011;55274;43.060;25.618;2022-10-16T04:01:44;19.20;;;7.93;;
68353;SDS011;55274;43.060;25.618;2022-10-16T04:04:09;19.92;;;7.95;;
68353;SDS011;55274;43.060;25.618;2022-10-16T04:06:35;17.88;;;7.50;;
68353;SDS011;55274;43.060;25.618;2022-10-16T04:09:01;17.10;;;7.88;;
68353;SDS011;55274;43.060;25.618;2022-10-16T04:11:27;18.63;;;8.00;;
68353;SDS011;55274;43.060;25.618;2022-10-16T04:13:53;18.92;;;8.23;;
68353;SDS011;55274;43.060;25.618;2022-10-16T04:16:19;18.08;;;7.32;;
68353;SDS011;55274;43.060;25.618;2022-10-16T04:18:45;14.90;;;7.22;;
68353;SDS011;55274;43.060;25.618;2022-10-16T04:21:11;13.68;;;6.22;;
68353;SDS011;55274;43.060;25.618;2022-10-16T04:23:36;11.13;;;5.97;;
68353;SDS011;55274;43.060;25.618;2022-10-16T04:26:02;13.70;;;6.85;;
68353;SDS011;55274;43.060;25.618;2022-10-16T04:28:28;12.20;;;5.78;;
68353;SDS011;55274;43.060;25.618;2022-10-16T04:30:54;15.13;;;6.18;;
68353;SDS011;55274;43.060;25.618;2022-10-16T04:33:20;17.17;;;6.70;;
68353;SDS011;55274;43.060;25.618;2022-10-16T04:35:45;14.40;;;6.22;;
68353;SDS011;55274;43.060;25.618;2022-10-16T04:38:11;16.83;;;7.22;;
68353;SDS011;55274;43.060;25.618;2022-10-16T04:40:37;14.63;;;7.07;;
68353;SDS011;55274;43.060;25.618;2022-10-16T04:43:03;14.65;;;7.20;;
68353;SDS011;55274;43.060;25.618;2022-10-16T04:45:29;14.90;;;6.28;;
68353;SDS011;55274;43.060;25.618;2022-10-16T04:47:58;12.60;;;6.43;;
68353;SDS011;55274;43.060;25.618;2022-10-16T04:50:24;15.43;;;6.72;;
68353;SDS011;55274;43.060;25.618;2022-10-16T04:52:50;14.13;;;5.78;;
68353;SDS011;55274;43.060;25.618;2022-10-16T04:55:16;11.57;;;6.32;;
68353;SDS011;55274;43.060;25.618;2022-10-16T04:57:42;12.23;;;5.93;;
68353;SDS011;55274;43.060;25.618;2022-10-16T05:00:08;13.30;;;6.45;;
68353;SDS011;55274;43.060;25.618;2022-10-16T05:02:34;10.20;;;5.97;;
68353;SDS011;55274;43.060;25.618;2022-10-16T05:05:00;13.10;;;6.10;;
68353;SDS011;55274;43.060;25.618;2022-10-16T05:07:26;11.63;;;5.70;;
68353;SDS011;55274;43.060;25.618;2022-10-16T05:09:51;11.77;;;6.55;;
68353;SDS011;55274;43.060;25.618;2022-10-16T05:12:18;19.13;;;6.22;;
68353;SDS011;55274;43.060;25.618;2022-10-16T05:14:44;13.10;;;6.43;;
68353;SDS011;55274;43.060;25.618;2022-10-16T05:17:10;18.65;;;7.93;;
68353;SDS011;55274;43.060;25.618;2022-10-16T05:19:35;19.42;;;7.75;;
68353;SDS011;55274;43.060;25.618;2022-10-16T05:22:01;24.63;;;8.85;;
68353;SDS011;55274;43.060;25.618;2022-10-16T05:24:27;19.10;;;8.23;;
68353;SDS011;55274;43.060;25.618;2022-10-16T05:26:53;23.02;;;8.27;;
68353;SDS011;55274;43.060;25.618;2022-10-16T05:29:19;21.42;;;7.60;;
68353;SDS011;55274;43.060;25.618;2022-10-16T05:31:45;19.67;;;7.30;;
68353;SDS011;55274;43.060;25.618;2022-10-16T05:34:10;22.30;;;8.43;;
68353;SDS011;55274;43.060;25.618;2022-10-16T05:36:36;21.25;;;8.07;;
68353;SDS011;55274;43.060;25.618;2022-10-16T05:39:02;20.65;;;8.38;;
68353;SDS011;55274;43.060;25.618;2022-10-16T05:41:28;23.58;;;8.27;;
68353;SDS011;55274;43.060;25.618;2022-10-16T05:43:54;19.58;;;8.23;;
68353;SDS011;55274;43.060;25.618;2022-10-16T05:46:20;14.25;;;6.07;;
68353;SDS011;55274;43.060;25.618;2022-10-16T05:48:46;16.88;;;7.20;;
68353;SDS011;55274;43.060;25.618;2022-10-16T05:51:12;16.13;;;6.75;;
68353;SDS011;55274;43.060;25.618;2022-10-16T05:53:39;16.85;;;6.75;;
68353;SDS011;55274;43.060;25.618;2022-10-16T05:56:06;22.33;;;7.75;;
68353;SDS011;55274;43.060;25.618;2022-10-16T05:58:35;23.83;;;8.45;;
68353;SDS011;55274;43.060;25.618;2022-10-16T06:01:05;24.05;;;8.73;;
68353;SDS011;55274;43.060;25.618;2022-10-16T06:03:34;20.45;;;7.68;;
68353;SDS011;55274;43.060;25.618;2022-10-16T06:06:07;23.00;;;8.45;;
68353;SDS011;55274;43.060;25.618;2022-10-16T06:08:37;22.08;;;8.13;;
68353;SDS011;55274;43.060;25.618;2022-10-16T06:11:03;17.33;;;7.22;;
68353;SDS011;55274;43.060;25.618;2022-10-16T06:13:31;20.85;;;7.95;;
68353;SDS011;55274;43.060;25.618;2022-10-16T06:15:58;21.08;;;7.85;;
68353;SDS011;55274;43.060;25.618;2022-10-16T06:18:25;18.50;;;7.03;;
68353;SDS011;55274;43.060;25.618;2022-10-16T06:20:51;15.18;;;6.22;;
68353;SDS011;55274;43.060;25.618;2022-10-16T06:23:17;16.38;;;6.40;;
68353;SDS011;55274;43.060;25.618;2022-10-16T06:25:43;22.35;;;7.10;;
68353;SDS011;55274;43.060;25.618;2022-10-16T06:28:09;19.85;;;7.72;;
68353;SDS011;55274;43.060;25.618;2022-10-16T06:30:34;19.65;;;7.43;;
68353;SDS011;55274;43.060;25.618;2022-10-16T06:33:00;20.98;;;7.85;;
68353;SDS011;55274;43.060;25.618;2022-10-16T06:35:26;20.88;;;7.53;;
68353;SDS011;55274;43.060;25.618;2022-10-16T06:37:54;16.63;;;6.72;;
68353;SDS011;55274;43.060;25.618;2022-10-16T06:40:20;13.52;;;6.28;;
68353;SDS011;55274;43.060;25.618;2022-10-16T06:42:46;10.07;;;5.68;;
68353;SDS011;55274;43.060;25.618;2022-10-16T06:45:12;8.88;;;5.50;;
68353;SDS011;55274;43.060;25.618;2022-10-16T06:47:37;13.55;;;6.30;;
68353;SDS011;55274;43.060;25.618;2022-10-16T06:50:03;17.00;;;6.72;;
68353;SDS011;55274;43.060;25.618;2022-10-16T06:52:32;16.73;;;6.78;;
68353;SDS011;55274;43.060;25.618;2022-10-16T06:54:58;12.45;;;6.45;;
68353;SDS011;55274;43.060;25.618;2022-10-16T06:57:24;14.80;;;6.18;;
68353;SDS011;55274;43.060;25.618;2022-10-16T06:59:50;16.92;;;6.53;;
68353;SDS011;55274;43.060;25.618;2022-10-16T07:02:16;14.20;;;6.63;;
68353;SDS011;55274;43.060;25.618;2022-10-16T07:04:41;15.05;;;6.80;;
68353;SDS011;55274;43.060;25.618;2022-10-16T07:07:07;11.32;;;5.60;;
68353;SDS011;55274;43.060;25.618;2022-10-16T07:09:33;10.18;;;5.15;;
68353;SDS011;55274;43.060;25.618;2022-10-16T07:11:59;10.07;;;4.85;;
68353;SDS011;55274;43.060;25.618;2022-10-16T07:14:24;8.48;;;5.55;;
68353;SDS011;55274;43.060;25.618;2022-10-16T07:16:50;8.48;;;4.80;;
68353;SDS011;55274;43.060;25.618;2022-10-16T07:19:16;8.88;;;4.70;;
68353;SDS011;55274;43.060;25.618;2022-10-16T07:21:43;9.77;;;4.68;;
68353;SDS011;55274;43.060;25.618;2022-10-16T07:24:16;7.00;;;4.45;;
68353;SDS011;55274;43.060;25.618;2022-10-16T07:26:42;9.82;;;5.18;;
68353;SDS011;55274;43.060;25.618;2022-10-16T07:29:13;10.43;;;5.30;;
68353;SDS011;55274;43.060;25.618;2022-10-16T07:31:40;9.73;;;4.93;;
68353;SDS011;55274;43.060;25.618;2022-10-16T07:34:07;11.10;;;4.90;;
68353;SDS011;55274;43.060;25.618;2022-10-16T07:36:33;11.55;;;4.97;;
68353;SDS011;55274;43.060;25.618;2022-10-16T07:38:59;9.35;;;5.38;;
68353;SDS011;55274;43.060;25.618;2022-10-16T07:41:25;8.55;;;4.88;;
68353;SDS011;55274;43.060;25.618;2022-10-16T07:43:52;6.55;;;4.03;;
68353;SDS011;55274;43.060;25.618;2022-10-16T07:46:20;9.13;;;4.22;;
68353;SDS011;55274;43.060;25.618;2022-10-16T07:48:47;8.02;;;4.63;;
68353;SDS011;55274;43.060;25.618;2022-10-16T07:51:14;8.77;;;4.88;;
68353;SDS011;55274;43.060;25.618;2022-10-16T07:53:41;10.35;;;4.85;;
68353;SDS011;55274;43.060;25.618;2022-10-16T07:56:06;7.75;;;4.32;;
68353;SDS011;55274;43.060;25.618;2022-10-16T07:58:34;8.77;;;4.65;;
68353;SDS011;55274;43.060;25.618;2022-10-16T08:01:04;9.63;;;5.13;;
68353;SDS011;55274;43.060;25.618;2022-10-16T08:05:59;8.95;;;4.68;;
68353;SDS011;55274;43.060;25.618;2022-10-16T08:08:26;8.80;;;4.43;;
68353;SDS011;55274;43.060;25.618;2022-10-16T08:10:52;9.43;;;4.40;;
68353;SDS011;55274;43.060;25.618;2022-10-16T08:13:18;9.05;;;4.30;;
68353;SDS011;55274;43.060;25.618;2022-10-16T08:15:44;7.38;;;4.03;;
68353;SDS011;55274;43.060;25.618;2022-10-16T08:18:11;5.95;;;3.90;;
68353;SDS011;55274;43.060;25.618;2022-10-16T08:20:38;7.47;;;3.92;;
68353;SDS011;55274;43.060;25.618;2022-10-16T08:23:04;6.82;;;4.22;;
68353;SDS011;55274;43.060;25.618;2022-10-16T08:25:30;8.50;;;4.35;;
68353;SDS011;55274;43.060;25.618;2022-10-16T08:27:56;7.10;;;3.95;;
68353;SDS011;55274;43.060;25.618;2022-10-16T08:30:22;8.10;;;3.88;;
68353;SDS011;55274;43.060;25.618;2022-10-16T08:32:49;8.73;;;3.90;;
68353;SDS011;55274;43.060;25.618;2022-10-16T08:35:15;7.28;;;4.40;;
68353;SDS011;55274;43.060;25.618;2022-10-16T08:37:41;6.05;;;3.33;;
68353;SDS011;55274;43.060;25.618;2022-10-16T08:40:24;7.22;;;3.95;;
68353;SDS011;55274;43.060;25.618;2022-10-16T08:48:30;6.45;;;3.30;;
68353;SDS011;55274;43.060;25.618;2022-10-16T08:51:29;5.53;;;3.88;;
68353;SDS011;55274;43.060;25.618;2022-10-16T08:53:58;5.93;;;3.30;;
68353;SDS011;55274;43.060;25.618;2022-10-16T08:56:27;7.00;;;3.53;;
68353;SDS011;55274;43.060;25.618;2022-10-16T08:58:53;7.20;;;3.40;;
68353;SDS011;55274;43.060;25.618;2022-10-16T09:01:20;6.85;;;3.65;;
68353;SDS011;55274;43.060;25.618;2022-10-16T09:12:31;10.45;;;3.72;;
68353;SDS011;55274;43.060;25.618;2022-10-16T09:15:13;6.43;;;3.10;;
68353;SDS011;55274;43.060;25.618;2022-10-16T09:23:22;5.10;;;3.53;;
68353;SDS011;55274;43.060;25.618;2022-10-16T09:25:52;49.20;;;4.60;;
68353;SDS011;55274;43.060;25.618;2022-10-16T09:28:19;22.20;;;3.78;;
68353;SDS011;55274;43.060;25.618;2022-10-16T09:30:45;20.10;;;3.78;;
68353;SDS011;55274;43.060;25.618;2022-10-16T09:33:13;19.23;;;4.13;;
68353;SDS011;55274;43.060;25.618;2022-10-16T09:38:25;11.13;;;3.35;;
68353;SDS011;55274;43.060;25.618;2022-10-16T09:43:49;5.15;;;2.63;;
68353;SDS011;55274;43.060;25.618;2022-10-16T09:48:51;7.85;;;2.78;;
68353;SDS011;55274;43.060;25.618;2022-10-16T09:51:21;7.00;;;3.03;;
68353;SDS011;55274;43.060;25.618;2022-10-16T09:53:53;4.93;;;2.70;;
68353;SDS011;55274;43.060;25.618;2022-10-16T09:56:32;10.52;;;2.70;;
68353;SDS011;55274;43.060;25.618;2022-10-16T09:59:02;5.22;;;2.63;;
68353;SDS011;55274;43.060;25.618;2022-10-16T10:01:36;11.27;;;3.40;;
68353;SDS011;55274;43.060;25.618;2022-10-16T10:04:05;12.98;;;3.00;;
68353;SDS011;55274;43.060;25.618;2022-10-16T10:06:36;6.28;;;2.63;;
68353;SDS011;55274;43.060;25.618;2022-10-16T10:19:52;6.03;;;3.00;;
68353;SDS011;55274;43.060;25.618;2022-10-16T10:24:57;22.08;;;3.30;;
68353;SDS011;55274;43.060;25.618;2022-10-16T10:27:31;20.67;;;3.33;;
68353;SDS011;55274;43.060;25.618;2022-10-16T10:38:49;6.32;;;3.13;;
68353;SDS011;55274;43.060;25.618;2022-10-16T10:41:38;5.63;;;2.60;;
68353;SDS011;55274;43.060;25.618;2022-10-16T10:46:50;10.85;;;2.95;;
68353;SDS011;55274;43.060;25.618;2022-10-16T10:57:16;4.78;;;2.53;;
68353;SDS011;55274;43.060;25.618;2022-10-16T11:07:45;4.28;;;2.33;;
68353;SDS011;55274;43.060;25.618;2022-10-16T11:10:25;8.80;;;2.78;;
68353;SDS011;55274;43.060;25.618;2022-10-16T11:13:16;18.60;;;3.60;;
68353;SDS011;55274;43.060;25.618;2022-10-16T11:18:52;13.45;;;3.20;;
68353;SDS011;55274;43.060;25.618;2022-10-16T11:21:48;7.88;;;2.60;;
68353;SDS011;55274;43.060;25.618;2022-10-16T11:24:23;7.28;;;2.78;;
68353;SDS011;55274;43.060;25.618;2022-10-16T11:27:09;6.85;;;3.33;;
68353;SDS011;55274;43.060;25.618;2022-10-16T11:29:45;12.65;;;4.05;;
68353;SDS011;55274;43.060;25.618;2022-10-16T11:32:52;17.98;;;3.85;;
68353;SDS011;55274;43.060;25.618;2022-10-16T11:38:01;5.10;;;3.20;;
68353;SDS011;55274;43.060;25.618;2022-10-16T11:40:31;9.48;;;3.50;;
68353;SDS011;55274;43.060;25.618;2022-10-16T11:43:21;6.07;;;3.05;;
68353;SDS011;55274;43.060;25.618;2022-10-16T11:45:56;8.90;;;3.03;;
68353;SDS011;55274;43.060;25.618;2022-10-16T11:48:28;5.80;;;3.55;;
68353;SDS011;55274;43.060;25.618;2022-10-16T11:53:44;6.47;;;3.22;;
68353;SDS011;55274;43.060;25.618;2022-10-16T11:56:21;5.95;;;3.45;;
68353;SDS011;55274;43.060;25.618;2022-10-16T12:03:52;4.70;;;2.95;;
68353;SDS011;55274;43.060;25.618;2022-10-16T12:06:27;6.65;;;3.10;;
68353;SDS011;55274;43.060;25.618;2022-10-16T12:09:26;9.32;;;3.17;;
68353;SDS011;55274;43.060;25.618;2022-10-16T12:12:01;4.53;;;2.60;;
68353;SDS011;55274;43.060;25.618;2022-10-16T12:14:35;6.85;;;3.00;;
68353;SDS011;55274;43.060;25.618;2022-10-16T12:17:22;5.72;;;2.70;;
68353;SDS011;55274;43.060;25.618;2022-10-16T12:20:02;6.70;;;3.05;;
68353;SDS011;55274;43.060;25.618;2022-10-16T12:22:55;5.15;;;2.75;;
68353;SDS011;55274;43.060;25.618;2022-10-16T12:25:34;8.32;;;3.17;;
68353;SDS011;55274;43.060;25.618;2022-10-16T12:30:40;6.72;;;3.20;;
68353;SDS011;55274;43.060;25.618;2022-10-16T12:33:21;5.95;;;2.90;;
68353;SDS011;55274;43.060;25.618;2022-10-16T12:35:49;5.68;;;2.70;;
68353;SDS011;55274;43.060;25.618;2022-10-16T12:38:20;7.20;;;2.70;;
68353;SDS011;55274;43.060;25.618;2022-10-16T12:40:59;5.35;;;2.90;;
68353;SDS011;55274;43.060;25.618;2022-10-16T12:43:28;4.55;;;2.65;;
68353;SDS011;55274;43.060;25.618;2022-10-16T12:46:39;7.57;;;3.15;;
68353;SDS011;55274;43.060;25.618;2022-10-16T12:49:05;7.93;;;3.08;;
68353;SDS011;55274;43.060;25.618;2022-10-16T12:51:38;7.28;;;2.97;;
68353;SDS011;55274;43.060;25.618;2022-10-16T12:57:43;14.85;;;3.30;;
68353;SDS011;55274;43.060;25.618;2022-10-16T13:08:22;7.40;;;2.63;;
68353;SDS011;55274;43.060;25.618;2022-10-16T13:13:58;6.45;;;2.85;;
68353;SDS011;55274;43.060;25.618;2022-10-16T13:19:34;5.07;;;2.83;;
68353;SDS011;55274;43.060;25.618;2022-10-16T13:29:32;5.43;;;2.80;;
68353;SDS011;55274;43.060;25.618;2022-10-16T13:31:59;7.40;;;3.13;;
68353;SDS011;55274;43.060;25.618;2022-10-16T13:34:31;9.35;;;2.38;;
68353;SDS011;55274;43.060;25.618;2022-10-16T13:36:57;5.68;;;2.60;;
68353;SDS011;55274;43.060;25.618;2022-10-16T13:39:27;5.50;;;2.70;;
68353;SDS011;55274;43.060;25.618;2022-10-16T13:44:53;3.50;;;2.60;;
68353;SDS011;55274;43.060;25.618;2022-10-16T13:49:58;6.80;;;2.90;;
68353;SDS011;55274;43.060;25.618;2022-10-16T13:52:44;7.70;;;2.97;;
68353;SDS011;55274;43.060;25.618;2022-10-16T13:55:11;8.38;;;2.90;;
68353;SDS011;55274;43.060;25.618;2022-10-16T13:57:38;6.05;;;2.38;;
68353;SDS011;55274;43.060;25.618;2022-10-16T14:00:17;5.90;;;2.78;;
68353;SDS011;55274;43.060;25.618;2022-10-16T14:03:01;6.75;;;2.92;;
68353;SDS011;55274;43.060;25.618;2022-10-16T14:05:29;4.40;;;2.88;;
68353;SDS011;55274;43.060;25.618;2022-10-16T14:07:55;7.22;;;2.83;;
68353;SDS011;55274;43.060;25.618;2022-10-16T14:10:24;3.97;;;2.60;;
68353;SDS011;55274;43.060;25.618;2022-10-16T14:12:58;5.05;;;2.67;;
68353;SDS011;55274;43.060;25.618;2022-10-16T14:15:26;5.13;;;2.65;;
68353;SDS011;55274;43.060;25.618;2022-10-16T14:17:52;8.35;;;2.40;;
68353;SDS011;55274;43.060;25.618;2022-10-16T14:20:18;4.50;;;2.53;;
68353;SDS011;55274;43.060;25.618;2022-10-16T14:22:57;10.80;;;2.90;;
68353;SDS011;55274;43.060;25.618;2022-10-16T14:25:29;6.05;;;2.60;;
68353;SDS011;55274;43.060;25.618;2022-10-16T14:30:54;6.05;;;2.88;;
68353;SDS011;55274;43.060;25.618;2022-10-16T14:33:23;5.50;;;2.95;;
68353;SDS011;55274;43.060;25.618;2022-10-16T14:38:35;11.25;;;3.00;;
68353;SDS011;55274;43.060;25.618;2022-10-16T14:41:03;8.43;;;2.83;;
68353;SDS011;55274;43.060;25.618;2022-10-16T14:43:33;6.50;;;2.42;;
68353;SDS011;55274;43.060;25.618;2022-10-16T14:46:02;6.63;;;2.45;;
68353;SDS011;55274;43.060;25.618;2022-10-16T14:48:41;7.38;;;2.90;;
68353;SDS011;55274;43.060;25.618;2022-10-16T14:51:18;4.85;;;3.30;;
68353;SDS011;55274;43.060;25.618;2022-10-16T14:53:45;6.28;;;2.90;;
68353;SDS011;55274;43.060;25.618;2022-10-16T14:58:44;6.20;;;2.78;;
68353;SDS011;55274;43.060;25.618;2022-10-16T15:01:10;6.38;;;2.50;;
68353;SDS011;55274;43.060;25.618;2022-10-16T15:03:37;6.15;;;2.80;;
68353;SDS011;55274;43.060;25.618;2022-10-16T15:06:03;6.63;;;2.55;;
68353;SDS011;55274;43.060;25.618;2022-10-16T15:08:34;8.18;;;2.47;;
68353;SDS011;55274;43.060;25.618;2022-10-16T15:11:00;3.50;;;2.35;;
68353;SDS011;55274;43.060;25.618;2022-10-16T15:13:26;8.88;;;3.00;;
68353;SDS011;55274;43.060;25.618;2022-10-16T15:15:51;7.15;;;2.90;;
68353;SDS011;55274;43.060;25.618;2022-10-16T15:18:18;4.75;;;2.80;;
68353;SDS011;55274;43.060;25.618;2022-10-16T15:20:47;8.35;;;2.67;;
68353;SDS011;55274;43.060;25.618;2022-10-16T15:23:16;6.75;;;3.45;;
68353;SDS011;55274;43.060;25.618;2022-10-16T15:25:47;7.43;;;3.13;;
68353;SDS011;55274;43.060;25.618;2022-10-16T15:28:17;4.25;;;2.83;;
68353;SDS011;55274;43.060;25.618;2022-10-16T15:30:43;5.47;;;3.13;;
68353;SDS011;55274;43.060;25.618;2022-10-16T15:33:20;4.25;;;2.80;;
68353;SDS011;55274;43.060;25.618;2022-10-16T15:35:52;5.97;;;2.85;;
68353;SDS011;55274;43.060;25.618;2022-10-16T15:38:19;8.40;;;3.50;;
68353;SDS011;55274;43.060;25.618;2022-10-16T15:40:47;16.92;;;5.15;;
68353;SDS011;55274;43.060;25.618;2022-10-16T15:43:13;11.35;;;4.18;;
68353;SDS011;55274;43.060;25.618;2022-10-16T15:45:39;10.25;;;4.22;;
68353;SDS011;55274;43.060;25.618;2022-10-16T15:48:05;21.00;;;4.07;;
68353;SDS011;55274;43.060;25.618;2022-10-16T15:50:31;7.18;;;3.50;;
68353;SDS011;55274;43.060;25.618;2022-10-16T15:52:57;7.00;;;3.67;;
68353;SDS011;55274;43.060;25.618;2022-10-16T15:55:23;10.05;;;4.13;;
68353;SDS011;55274;43.060;25.618;2022-10-16T15:57:49;8.25;;;4.38;;
68353;SDS011;55274;43.060;25.618;2022-10-16T16:00:16;10.70;;;4.30;;
68353;SDS011;55274;43.060;25.618;2022-10-16T16:02:43;8.13;;;4.20;;
68353;SDS011;55274;43.060;25.618;2022-10-16T16:05:14;12.50;;;4.57;;
68353;SDS011;55274;43.060;25.618;2022-10-16T16:07:40;11.98;;;4.18;;
68353;SDS011;55274;43.060;25.618;2022-10-16T16:10:07;10.15;;;4.13;;
68353;SDS011;55274;43.060;25.618;2022-10-16T16:12:34;9.73;;;4.47;;
68353;SDS011;55274;43.060;25.618;2022-10-16T16:15:02;8.48;;;4.50;;
68353;SDS011;55274;43.060;25.618;2022-10-16T16:17:32;8.88;;;4.30;;
68353;SDS011;55274;43.060;25.618;2022-10-16T16:19:58;12.35;;;4.57;;
68353;SDS011;55274;43.060;25.618;2022-10-16T16:22:24;8.20;;;4.55;;
68353;SDS011;55274;43.060;25.618;2022-10-16T16:24:50;15.68;;;4.63;;
68353;SDS011;55274;43.060;25.618;2022-10-16T16:27:16;9.35;;;4.30;;
68353;SDS011;55274;43.060;25.618;2022-10-16T16:29:42;7.63;;;5.18;;
68353;SDS011;55274;43.060;25.618;2022-10-16T16:32:07;11.10;;;4.70;;
68353;SDS011;55274;43.060;25.618;2022-10-16T16:34:33;8.48;;;4.45;;
68353;SDS011;55274;43.060;25.618;2022-10-16T16:36:59;9.73;;;4.18;;
68353;SDS011;55274;43.060;25.618;2022-10-16T16:39:25;10.95;;;4.53;;
68353;SDS011;55274;43.060;25.618;2022-10-16T16:41:51;9.30;;;4.43;;
68353;SDS011;55274;43.060;25.618;2022-10-16T16:44:17;8.60;;;4.55;;
68353;SDS011;55274;43.060;25.618;2022-10-16T16:46:43;9.80;;;4.72;;
68353;SDS011;55274;43.060;25.618;2022-10-16T16:49:11;9.68;;;4.50;;
68353;SDS011;55274;43.060;25.618;2022-10-16T16:51:37;12.00;;;4.72;;
68353;SDS011;55274;43.060;25.618;2022-10-16T16:54:03;9.05;;;4.22;;
68353;SDS011;55274;43.060;25.618;2022-10-16T16:56:30;10.05;;;4.00;;
68353;SDS011;55274;43.060;25.618;2022-10-16T16:58:56;10.35;;;4.72;;
68353;SDS011;55274;43.060;25.618;2022-10-16T17:01:24;11.55;;;4.53;;
68353;SDS011;55274;43.060;25.618;2022-10-16T17:03:51;12.70;;;4.93;;
68353;SDS011;55274;43.060;25.618;2022-10-16T17:06:20;12.85;;;4.50;;
68353;SDS011;55274;43.060;25.618;2022-10-16T17:08:50;11.75;;;4.65;;
68353;SDS011;55274;43.060;25.618;2022-10-16T17:11:17;10.40;;;4.10;;
68353;SDS011;55274;43.060;25.618;2022-10-16T17:13:45;7.90;;;4.43;;